Time;durP1;ratioP1;P1;durP2;ratioP2;P2;SDS_P1;SDS_P2;PMS_P1;PMS_P2;Temp;Humidity;BMP_temperature;BMP_pressure;BME280_temperature;BME280_humidity;BME280_pressure;Samples;Min_cycle;Max_cycle;Signal;HPM_P1;HPM_P2
2021/07/20 00:02:12;;;;;;;2.47;2.00;;;18.90;98.00;;;;;;5090395;28;20509;-71
2021/07/20 00:04:39;;;;;;;2.47;1.73;;;18.90;98.00;;;;;;5091530;28;20876;-70
2021/07/20 00:07:08;;;;;;;3.17;1.97;;;18.80;98.00;;;;;;5091869;28;20482;-71
2021/07/20 00:09:35;;;;;;;3.67;2.00;;;18.70;98.00;;;;;;5091777;28;20448;-69
2021/07/20 00:12:02;;;;;;;2.70;1.80;;;18.60;98.00;;;;;;5091683;28;20525;-69
2021/07/20 00:14:29;;;;;;;3.37;1.97;;;18.50;98.00;;;;;;5091254;28;20519;-70
2021/07/20 00:16:56;;;;;;;1.50;1.30;;;18.40;98.00;;;;;;5091577;28;20938;-70
2021/07/20 00:19:23;;;;;;;3.27;2.30;;;18.40;98.00;;;;;;5090370;28;20483;-71
2021/07/20 00:21:52;;;;;;;2.53;1.90;;;18.40;98.00;;;;;;5091736;28;20861;-70
2021/07/20 00:24:20;;;;;;;1.97;1.53;;;18.30;98.00;;;;;;5090635;28;20455;-69
2021/07/20 00:26:48;;;;;;;2.83;2.00;;;18.40;98.00;;;;;;5091214;28;20464;-70
2021/07/20 00:29:15;;;;;;;1.77;1.53;;;18.40;98.00;;;;;;5091350;28;20488;-69
2021/07/20 00:31:42;;;;;;;1.97;1.57;;;18.30;98.00;;;;;;5091667;28;20534;-70
2021/07/20 00:34:09;;;;;;;3.40;2.30;;;18.20;98.00;;;;;;5091204;28;20570;-70
2021/07/20 00:36:36;;;;;;;2.30;1.80;;;18.20;98.00;;;;;;5091475;28;20488;-69
2021/07/20 00:39:05;;;;;;;2.13;1.40;;;18.10;98.00;;;;;;5091327;28;20491;-69
2021/07/20 00:41:33;;;;;;;2.63;1.80;;;18.00;98.00;;;;;;5091568;28;20996;-69
2021/07/20 00:44:00;;;;;;;4.10;2.17;;;18.10;98.00;;;;;;5091586;28;20572;-70
2021/07/20 00:46:27;;;;;;;1.80;1.70;;;18.00;98.00;;;;;;5091597;28;20588;-70
2021/07/20 00:48:54;;;;;;;2.63;2.13;;;18.00;98.00;;;;;;5091500;28;20791;-70
2021/07/20 00:51:21;;;;;;;1.60;1.50;;;18.00;98.00;;;;;;5089825;28;21106;-70
2021/07/20 00:53:50;;;;;;;4.20;1.93;;;18.00;98.00;;;;;;5091273;28;20511;-70
2021/07/20 00:56:17;;;;;;;2.27;1.83;;;17.90;98.00;;;;;;5091464;28;20456;-69
2021/07/20 00:58:47;;;;;;;2.97;2.30;;;17.80;98.00;;;;;;5091517;28;20854;-69
2021/07/20 01:01:14;;;;;;;2.23;1.90;;;17.70;98.00;;;;;;5090515;28;20517;-70
2021/07/20 01:03:41;;;;;;;3.20;2.33;;;17.60;98.00;;;;;;5093802;28;20487;-70
2021/07/20 01:06:10;;;;;;;1.60;1.50;;;17.60;98.00;;;;;;5095091;28;20455;-70
2021/07/20 01:08:41;;;;;;;2.23;1.80;;;17.60;98.00;;;;;;5094959;28;20510;-69
2021/07/20 01:11:08;;;;;;;1.87;1.70;;;17.50;98.00;;;;;;5094845;28;20460;-69
2021/07/20 01:13:37;;;;;;;2.53;1.77;;;17.50;98.00;;;;;;5093788;28;20479;-69
2021/07/20 01:16:07;;;;;;;2.43;1.90;;;17.40;98.00;;;;;;5095006;28;20525;-69
2021/07/20 01:18:35;;;;;;;3.10;2.13;;;17.40;98.00;;;;;;5094889;28;20487;-69
2021/07/20 01:21:03;;;;;;;2.77;1.83;;;17.40;98.00;;;;;;5094267;28;21020;-70
2021/07/20 01:23:34;;;;;;;2.23;2.03;;;17.30;98.00;;;;;;5094581;28;20938;-70
2021/07/20 01:26:01;;;;;;;2.07;1.80;;;17.40;98.00;;;;;;5094276;28;20525;-70
2021/07/20 01:28:30;;;;;;;2.37;1.60;;;17.40;98.00;;;;;;5094128;28;20456;-69
2021/07/20 01:31:03;;;;;;;3.73;1.90;;;17.30;98.00;;;;;;5094294;28;21056;-71
2021/07/20 01:33:33;;;;;;;2.10;1.80;;;17.30;98.00;;;;;;5093997;28;20514;-69
2021/07/20 01:36:03;;;;;;;2.50;1.70;;;17.20;98.00;;;;;;5094224;28;20491;-69
2021/07/20 01:38:31;;;;;;;3.20;1.57;;;17.20;98.00;;;;;;5093428;28;20560;-70
2021/07/20 01:41:06;;;;;;;1.70;1.40;;;17.10;98.00;;;;;;5094283;28;21155;-69
2021/07/20 01:43:34;;;;;;;3.10;2.00;;;17.20;98.00;;;;;;5094153;28;20945;-69
2021/07/20 01:46:03;;;;;;;2.10;1.37;;;17.20;98.00;;;;;;5094215;28;20590;-70
2021/07/20 01:48:33;;;;;;;1.53;1.43;;;17.00;98.00;;;;;;5093832;28;20458;-69
2021/07/20 01:51:02;;;;;;;1.97;1.67;;;17.00;98.00;;;;;;5094017;28;20484;-69
2021/07/20 01:53:30;;;;;;;3.30;2.10;;;16.90;98.00;;;;;;5093833;28;20487;-69
2021/07/20 01:55:57;;;;;;;2.27;1.50;;;16.90;98.00;;;;;;5094045;28;20488;-69
2021/07/20 01:58:26;;;;;;;1.30;1.20;;;17.00;98.00;;;;;;5093771;28;20468;-69
2021/07/20 02:00:54;;;;;;;1.73;1.40;;;17.00;98.00;;;;;;5093010;28;20488;-70
2021/07/20 02:03:31;;;;;;;1.50;1.27;;;17.00;98.00;;;;;;5093823;28;20846;-69
2021/07/20 02:08:49;;;;;;;1.80;1.63;;;16.90;98.00;;;;;;5093903;28;20455;-69
2021/07/20 02:11:23;;;;;;;3.80;2.20;;;16.70;98.00;;;;;;5093041;28;20484;-70
2021/07/20 02:13:56;;;;;;;1.93;1.60;;;16.70;98.00;;;;;;5092403;28;21029;-70
2021/07/20 02:16:27;;;;;;;1.87;1.40;;;16.70;98.00;;;;;;5093732;28;20517;-69
2021/07/20 02:21:45;;;;;;;1.87;1.63;;;16.60;98.00;;;;;;5093421;28;20464;-69
2021/07/20 02:24:16;;;;;;;4.10;1.80;;;16.50;98.00;;;;;;5093427;28;20486;-70
2021/07/20 02:26:43;;;;;;;2.23;1.50;;;16.50;98.00;;;;;;5093763;28;20492;-70
2021/07/20 02:29:14;;;;;;;2.73;1.67;;;16.40;98.00;;;;;;5093711;28;20460;-69
2021/07/20 02:31:42;;;;;;;3.97;2.10;;;16.40;98.00;;;;;;5093463;28;20481;-70
2021/07/20 02:34:09;;;;;;;5.73;2.00;;;16.40;98.00;;;;;;5093327;28;20518;-69
2021/07/20 02:36:38;;;;;;;1.40;1.30;;;16.50;98.00;;;;;;5093293;28;20488;-70
2021/07/20 02:39:06;;;;;;;1.80;1.30;;;16.50;98.00;;;;;;5091592;28;20488;-69
2021/07/20 02:41:34;;;;;;;3.20;1.83;;;16.40;98.00;;;;;;5093089;28;20459;-70
2021/07/20 02:44:02;;;;;;;1.97;1.50;;;16.30;98.00;;;;;;5092600;28;20448;-69
2021/07/20 02:46:31;;;;;;;2.90;1.80;;;16.30;98.00;;;;;;5091495;28;20521;-70
2021/07/20 02:49:00;;;;;;;2.00;1.50;;;16.30;98.00;;;;;;5092429;28;20459;-69
2021/07/20 02:51:28;;;;;;;2.13;1.30;;;16.20;98.00;;;;;;5092817;28;20456;-70
2021/07/20 02:53:59;;;;;;;2.83;1.40;;;16.20;98.00;;;;;;5092707;28;20887;-69
2021/07/20 02:56:29;;;;;;;1.93;1.57;;;16.20;98.00;;;;;;5092708;28;20530;-69
2021/07/20 02:59:00;;;;;;;2.27;1.43;;;16.10;98.00;;;;;;5092852;28;20929;-70
2021/07/20 03:01:28;;;;;;;1.57;1.33;;;16.10;98.00;;;;;;5092580;28;20946;-70
2021/07/20 03:04:01;;;;;;;1.47;1.20;;;16.20;98.00;;;;;;5092552;28;20456;-70
2021/07/20 03:06:29;;;;;;;1.30;1.30;;;16.30;98.00;;;;;;5091305;28;20853;-69
2021/07/20 03:08:59;;;;;;;2.00;1.60;;;16.20;98.00;;;;;;5092590;28;20460;-70
2021/07/20 03:11:30;;;;;;;2.47;2.00;;;16.20;98.00;;;;;;5092461;28;20498;-69
2021/07/20 03:16:45;;;;;;;2.83;1.90;;;16.00;98.00;;;;;;5092334;28;20456;-71
2021/07/20 03:19:16;;;;;;;2.13;1.20;;;16.00;98.00;;;;;;5092537;28;20459;-68
2021/07/20 03:21:46;;;;;;;3.60;1.77;;;15.90;98.00;;;;;;5092204;28;20470;-69
2021/07/20 03:24:15;;;;;;;1.53;1.30;;;15.90;98.00;;;;;;5092374;28;20487;-69
2021/07/20 03:26:42;;;;;;;1.50;1.20;;;15.90;98.00;;;;;;5092191;28;20518;-70
2021/07/20 03:29:12;;;;;;;3.20;1.37;;;15.90;98.00;;;;;;5092183;28;20891;-70
2021/07/20 03:31:39;;;;;;;1.37;1.30;;;15.80;98.00;;;;;;5092263;28;20937;-69
2021/07/20 03:34:07;;;;;;;1.60;1.50;;;15.80;98.00;;;;;;5092054;28;21070;-69
2021/07/20 03:36:36;;;;;;;1.50;1.40;;;15.80;98.00;;;;;;5092338;28;20487;-69
2021/07/20 03:39:04;;;;;;;1.63;1.30;;;15.70;98.00;;;;;;5092044;28;20455;-69
2021/07/20 03:41:33;;;;;;;1.40;1.20;;;15.70;98.00;;;;;;5092332;28;20456;-68
2021/07/20 03:44:02;;;;;;;1.57;1.40;;;15.70;98.00;;;;;;5091998;28;20887;-69
2021/07/20 03:46:29;;;;;;;1.77;1.33;;;15.70;98.00;;;;;;5092140;28;20520;-69
2021/07/20 03:48:58;;;;;;;1.90;1.20;;;15.70;98.00;;;;;;5092102;28;20533;-70
2021/07/20 03:51:26;;;;;;;1.57;1.37;;;15.70;98.00;;;;;;5092525;28;20460;-69
2021/07/20 03:53:55;;;;;;;2.07;1.50;;;15.70;98.00;;;;;;5092036;28;20918;-69
2021/07/20 03:56:23;;;;;;;1.40;1.33;;;15.70;98.00;;;;;;5092009;28;20499;-69
2021/07/20 03:58:52;;;;;;;1.20;1.10;;;15.70;98.00;;;;;;5091588;28;20457;-69
2021/07/20 04:01:20;;;;;;;2.37;1.60;;;15.60;98.00;;;;;;5091959;28;20918;-70
2021/07/20 04:03:51;;;;;;;3.20;2.00;;;15.80;98.00;;;;;;5091824;28;20514;-70
2021/07/20 04:06:22;;;;;;;3.17;1.60;;;15.80;98.00;;;;;;5091654;28;20555;-69
2021/07/20 04:08:49;;;;;;;1.60;1.30;;;15.90;98.00;;;;;;5091682;28;20471;-69
2021/07/20 04:11:18;;;;;;;1.87;1.50;;;16.00;98.00;;;;;;5091762;28;20452;-69
2021/07/20 04:13:48;;;;;;;1.40;1.20;;;16.00;98.00;;;;;;5091296;28;20479;-69
2021/07/20 04:16:16;;;;;;;2.13;1.40;;;16.00;98.00;;;;;;5090465;28;20484;-69
2021/07/20 04:18:45;;;;;;;2.63;1.90;;;15.90;98.00;;;;;;5091572;28;20984;-69
2021/07/20 04:21:13;;;;;;;2.13;1.67;;;15.80;98.00;;;;;;5091780;28;20480;-69
2021/07/20 04:23:40;;;;;;;2.00;1.47;;;15.70;98.00;;;;;;5091650;28;20514;-70
2021/07/20 04:26:08;;;;;;;1.30;1.30;;;15.80;98.00;;;;;;5091226;28;20495;-70
2021/07/20 04:28:37;;;;;;;2.27;1.50;;;15.80;98.00;;;;;;5090203;28;20480;-70
2021/07/20 04:31:05;;;;;;;2.03;1.37;;;15.80;98.00;;;;;;5091563;28;20496;-70
2021/07/20 04:33:35;;;;;;;1.90;1.40;;;15.80;98.00;;;;;;5091466;28;20452;-70
2021/07/20 04:36:03;;;;;;;1.73;1.33;;;15.70;98.00;;;;;;5091764;28;21142;-70
2021/07/20 04:38:33;;;;;;;3.30;1.63;;;15.70;98.00;;;;;;5095433;28;20460;-69
2021/07/20 04:41:01;;;;;;;2.27;1.80;;;15.80;98.00;;;;;;5095517;28;20935;-70
2021/07/20 04:43:29;;;;;;;1.60;1.20;;;15.80;98.00;;;;;;5095426;28;20487;-69
2021/07/20 04:45:58;;;;;;;1.70;1.30;;;15.90;98.00;;;;;;5095420;28;20546;-70
2021/07/20 04:48:26;;;;;;;2.23;1.40;;;16.00;98.00;;;;;;5093814;28;20448;-69
2021/07/20 04:50:56;;;;;;;2.50;1.70;;;16.20;98.00;;;;;;5095177;28;20946;-69
2021/07/20 04:53:24;;;;;;;2.33;1.77;;;16.30;98.00;;;;;;5095217;28;20495;-69
2021/07/20 04:55:52;;;;;;;4.27;1.73;;;16.50;98.00;;;;;;5093896;28;20511;-68
2021/07/20 04:58:20;;;;;;;1.20;1.10;;;16.60;98.00;;;;;;5095203;28;20777;-69
2021/07/20 05:00:50;;;;;;;1.37;1.37;;;16.70;98.00;;;;;;5095142;28;20863;-69
2021/07/20 05:03:21;;;;;;;1.80;1.63;;;16.70;98.00;;;;;;5095301;28;20980;-69
2021/07/20 05:05:49;;;;;;;2.33;1.50;;;16.80;98.00;;;;;;5095166;28;20460;-70
2021/07/20 05:08:18;;;;;;;1.77;1.70;;;16.80;98.00;;;;;;5095322;28;20856;-69
2021/07/20 05:10:48;;;;;;;2.27;1.77;;;16.90;98.00;;;;;;5095219;28;20867;-68
2021/07/20 05:13:18;;;;;;;1.67;1.43;;;16.90;98.00;;;;;;5094535;28;20550;-69
2021/07/20 05:15:47;;;;;;;1.40;1.40;;;16.90;98.00;;;;;;5094862;28;20577;-70
2021/07/20 05:21:00;;;;;;;1.80;1.80;;;17.10;98.00;;;;;;5094574;28;20453;-69
2021/07/20 05:23:28;;;;;;;2.07;1.50;;;17.20;98.00;;;;;;5094485;28;20521;-69
2021/07/20 05:25:57;;;;;;;3.23;2.07;;;17.30;98.00;;;;;;5094431;28;20491;-69
2021/07/20 05:28:27;;;;;;;2.17;1.60;;;17.30;98.00;;;;;;5094340;28;20818;-69
2021/07/20 05:30:56;;;;;;;1.40;1.30;;;17.30;98.00;;;;;;5093225;28;20547;-69
2021/07/20 05:33:24;;;;;;;1.30;1.27;;;17.40;98.00;;;;;;5094350;28;20491;-70
2021/07/20 05:35:54;;;;;;;2.43;1.63;;;17.40;98.00;;;;;;5094251;28;20480;-69
2021/07/20 05:38:24;;;;;;;2.53;1.63;;;17.40;98.00;;;;;;5094310;28;20452;-69
2021/07/20 05:40:53;;;;;;;3.63;1.93;;;17.40;98.00;;;;;;5094066;28;20456;-69
2021/07/20 05:43:21;;;;;;;2.50;1.77;;;17.40;98.00;;;;;;5094035;28;20581;-70
2021/07/20 05:45:49;;;;;;;1.90;1.73;;;17.50;98.00;;;;;;5094632;28;20456;-69
2021/07/20 05:48:18;;;;;;;3.50;1.83;;;17.60;98.00;;;;;;5092670;28;20484;-69
2021/07/20 05:50:50;;;;;;;2.87;1.67;;;17.50;98.00;;;;;;5093874;28;20497;-70
2021/07/20 05:53:18;;;;;;;2.00;1.87;;;17.60;98.00;;;;;;5094184;28;20517;-68
2021/07/20 05:55:51;;;;;;;2.43;1.40;;;17.70;98.00;;;;;;5093930;28;20533;-70
2021/07/20 05:58:20;;;;;;;2.40;1.80;;;17.80;98.00;;;;;;5093892;28;20452;-69
2021/07/20 06:00:50;;;;;;;2.37;1.67;;;17.80;98.00;;;;;;5093911;28;20452;-69
2021/07/20 06:03:19;;;;;;;2.57;1.60;;;17.80;98.00;;;;;;5093941;28;20459;-69
2021/07/20 06:05:48;;;;;;;1.93;1.80;;;17.90;98.00;;;;;;5093721;28;20492;-69
2021/07/20 06:08:16;;;;;;;3.00;2.10;;;17.90;98.00;;;;;;5093520;28;20530;-70
2021/07/20 06:10:46;;;;;;;2.60;2.00;;;17.90;98.00;;;;;;5092511;28;20539;-69
2021/07/20 06:13:17;;;;;;;1.70;1.50;;;17.90;98.00;;;;;;5093785;28;20487;-69
2021/07/20 06:15:45;;;;;;;2.60;1.50;;;17.90;98.00;;;;;;5093557;28;20490;-69
2021/07/20 06:18:12;;;;;;;1.73;1.60;;;18.00;98.00;;;;;;5093759;28;20593;-70
2021/07/20 06:20:44;;;;;;;2.97;2.53;;;18.10;98.00;;;;;;5093692;28;20872;-69
2021/07/20 06:23:14;;;;;;;2.23;1.90;;;18.20;98.00;;;;;;5093501;28;20528;-69
2021/07/20 06:25:42;;;;;;;2.57;1.90;;;18.20;98.00;;;;;;5093190;28;20476;-69
2021/07/20 06:28:09;;;;;;;3.53;2.60;;;18.40;98.00;;;;;;5093622;28;20463;-69
2021/07/20 06:30:40;;;;;;;1.83;1.70;;;18.30;98.00;;;;;;5093024;28;20942;-69
2021/07/20 06:33:08;;;;;;;2.30;1.93;;;18.40;98.00;;;;;;5092732;28;20576;-69
2021/07/20 06:35:40;;;;;;;1.90;1.47;;;18.40;98.00;;;;;;5092738;28;20484;-70
2021/07/20 06:38:10;;;;;;;2.53;1.83;;;18.40;98.00;;;;;;5092443;28;20825;-71
2021/07/20 06:40:37;;;;;;;2.33;1.50;;;18.50;98.00;;;;;;5092078;28;20452;-70
2021/07/20 06:43:06;;;;;;;2.00;1.53;;;18.60;98.00;;;;;;5092458;28;20516;-70
2021/07/20 06:45:36;;;;;;;1.50;1.40;;;18.60;98.00;;;;;;5092707;28;20452;-70
2021/07/20 06:48:05;;;;;;;3.00;2.17;;;18.70;98.00;;;;;;5092915;28;20502;-70
2021/07/20 06:50:32;;;;;;;1.47;1.47;;;18.80;98.00;;;;;;5092820;28;20480;-69
2021/07/20 06:52:59;;;;;;;1.90;1.40;;;18.70;98.00;;;;;;5092469;28;20973;-70
2021/07/20 06:55:28;;;;;;;2.10;1.70;;;18.80;98.00;;;;;;5091383;28;20511;-70
2021/07/20 06:57:57;;;;;;;1.80;1.67;;;18.80;98.00;;;;;;5091504;28;20459;-71
2021/07/20 07:00:26;;;;;;;1.57;1.37;;;18.90;98.00;;;;;;5092239;28;20531;-70
2021/07/20 07:02:59;;;;;;;2.07;1.40;;;18.90;98.00;;;;;;5092525;28;20521;-70
2021/07/20 07:05:30;;;;;;;1.60;1.60;;;18.90;98.00;;;;;;5092653;28;20541;-70
2021/07/20 07:07:58;;;;;;;1.83;1.50;;;18.90;98.00;;;;;;5092624;28;20487;-69
2021/07/20 07:10:28;;;;;;;2.73;1.97;;;19.00;98.00;;;;;;5092277;28;20499;-69
2021/07/20 07:12:56;;;;;;;2.27;1.90;;;19.10;98.00;;;;;;5092329;28;20525;-69
2021/07/20 07:15:24;;;;;;;1.87;1.40;;;19.20;98.00;;;;;;5092244;28;21357;-70
2021/07/20 07:17:52;;;;;;;2.93;2.27;;;19.30;98.00;;;;;;5092231;28;20456;-69
2021/07/20 07:20:25;;;;;;;2.07;1.60;;;19.30;98.00;;;;;;5092430;28;20451;-68
2021/07/20 07:22:58;;;;;;;2.23;1.67;;;19.30;98.00;;;;;;5092007;28;20506;-68
2021/07/20 07:25:26;;;;;;;2.70;1.83;;;19.50;98.00;;;;;;5106701;28;20859;-68
2021/07/20 07:27:54;;;;;;;1.77;1.40;;;19.60;98.00;;;;;;5107465;28;20458;-69
2021/07/20 07:30:22;;;;;;;1.80;1.50;;;20.00;98.00;;;;;;5089008;28;20464;-69
2021/07/20 07:32:49;;;;;;;2.57;1.90;;;20.50;98.00;;;;;;5099777;28;20498;-69
2021/07/20 07:35:17;;;;;;;2.80;2.43;;;20.80;98.00;;;;;;5107756;28;20924;-69
2021/07/20 07:37:46;;;;;;;2.47;1.67;;;21.00;98.00;;;;;;5090920;28;20454;-71
2021/07/20 07:40:18;;;;;;;1.87;1.87;;;20.80;98.00;;;;;;5106961;28;20534;-69
2021/07/20 07:42:47;;;;;;;2.63;1.60;;;20.90;98.00;;;;;;5107853;28;20798;-69
2021/07/20 07:45:15;;;;;;;1.70;1.50;;;21.10;98.00;;;;;;5106252;28;20501;-69
2021/07/20 07:47:44;;;;;;;7.07;1.73;;;21.20;98.00;;;;;;5100446;28;21040;-69
2021/07/20 07:50:13;;;;;;;1.70;1.67;;;21.30;98.00;;;;;;5090332;28;20456;-68
2021/07/20 07:52:41;;;;;;;2.13;1.80;;;21.40;98.00;;;;;;5090603;28;20541;-69
2021/07/20 07:55:11;;;;;;;2.03;1.57;;;21.30;98.00;;;;;;5096553;28;20841;-69
2021/07/20 07:57:41;;;;;;;1.93;1.70;;;21.20;98.00;;;;;;5105762;28;20451;-69
2021/07/20 08:00:09;;;;;;;2.90;1.60;;;21.20;98.00;;;;;;5100030;28;20517;-70
2021/07/20 08:02:40;;;;;;;2.60;1.70;;;21.30;98.00;;;;;;5097966;28;20521;-68
2021/07/20 08:05:09;;;;;;;1.83;1.60;;;21.40;98.00;;;;;;5107797;28;20462;-68
2021/07/20 08:07:38;;;;;;;1.97;1.40;;;21.70;98.00;;;;;;5108358;28;20459;-66
2021/07/20 08:10:07;;;;;;;1.70;1.50;;;22.00;98.00;;;;;;5105819;28;20467;-66
2021/07/20 08:12:35;;;;;;;1.60;1.53;;;22.00;98.00;;;;;;5102101;28;20543;-67
2021/07/20 08:15:04;;;;;;;1.60;1.33;;;22.10;98.00;;;;;;5092975;28;20460;-67
2021/07/20 08:17:34;;;;;;;2.40;1.70;;;22.30;98.00;;;;;;5100620;28;20523;-68
2021/07/20 08:20:02;;;;;;;2.53;1.80;;;22.50;98.00;;;;;;5094441;28;20463;-68
2021/07/20 08:22:30;;;;;;;2.23;1.83;;;22.40;98.00;;;;;;5102634;28;20940;-66
2021/07/20 08:25:04;;;;;;;2.63;2.07;;;22.40;98.00;;;;;;5104350;28;20487;-68
2021/07/20 08:27:36;;;;;;;2.07;1.40;;;22.60;98.00;;;;;;5111342;28;21034;-67
2021/07/20 08:30:07;;;;;;;2.03;1.80;;;22.50;98.00;;;;;;5102799;28;20458;-68
2021/07/20 08:32:46;;;;;;;2.57;1.97;;;22.50;98.00;;;;;;5089689;28;20505;-68
2021/07/20 08:35:17;;;;;;;1.80;1.70;;;22.50;98.00;;;;;;5102359;28;20554;-68
2021/07/20 08:37:47;;;;;;;2.73;1.83;;;22.60;98.00;;;;;;5107518;28;20465;-68
2021/07/20 08:40:24;;;;;;;1.93;1.30;;;22.50;98.00;;;;;;5106984;28;20534;-68
2021/07/20 08:43:02;;;;;;;2.03;1.60;;;22.70;98.00;;;;;;5103958;28;20517;-68
2021/07/20 08:45:36;;;;;;;1.97;1.90;;;22.90;98.00;;;;;;5111206;28;20482;-70
2021/07/20 08:48:12;;;;;;;1.90;1.67;;;22.90;98.00;;;;;;5093518;28;20454;-69
2021/07/20 08:50:45;;;;;;;1.70;1.50;;;22.90;98.00;;;;;;5098812;28;20462;-68
2021/07/20 08:53:21;;;;;;;2.23;1.70;;;23.10;98.00;;;;;;5092969;28;20451;-68
2021/07/20 08:55:53;;;;;;;2.23;1.80;;;23.10;98.00;;;;;;5102168;28;20523;-69
2021/07/20 08:58:24;;;;;;;3.30;1.60;;;22.80;98.00;;;;;;5101455;28;20459;-69
2021/07/20 09:00:56;;;;;;;1.50;1.40;;;22.80;98.00;;;;;;5099307;28;20491;-69
2021/07/20 09:03:44;;;;;;;3.07;2.17;;;22.70;98.00;;;;;;5106335;28;20483;-69
2021/07/20 09:06:15;;;;;;;2.30;2.10;;;22.80;98.00;;;;;;5110937;27;20459;-69
2021/07/20 09:08:45;;;;;;;2.30;1.67;;;22.80;97.00;;;;;;5101415;28;20871;-70
2021/07/20 09:11:21;;;;;;;1.80;1.50;;;22.70;98.00;;;;;;5095169;28;20460;-69
2021/07/20 09:13:54;;;;;;;1.83;1.73;;;22.60;98.00;;;;;;5102069;28;20548;-68
2021/07/20 09:16:31;;;;;;;4.00;2.10;;;22.70;98.00;;;;;;5111122;28;20514;-68
2021/07/20 09:19:04;;;;;;;2.57;1.87;;;22.70;97.70;;;;;;5101798;28;20508;-70
2021/07/20 09:21:32;;;;;;;1.93;1.40;;;23.00;97.80;;;;;;5101922;28;20456;-69
2021/07/20 09:24:07;;;;;;;2.73;1.87;;;23.10;96.20;;;;;;5101334;28;20500;-69
2021/07/20 09:26:41;;;;;;;1.60;1.40;;;23.10;95.90;;;;;;5093013;28;20467;-68
2021/07/20 09:29:15;;;;;;;2.07;1.70;;;23.40;98.00;;;;;;5109233;28;20965;-68
2021/07/20 09:32:03;;;;;;;13.50;2.27;;;23.70;95.50;;;;;;5110219;28;20467;-69
2021/07/20 09:34:48;;;;;;;1.73;1.47;;;23.80;96.60;;;;;;5104380;28;20478;-68
2021/07/20 09:37:21;;;;;;;2.40;1.80;;;23.50;94.40;;;;;;5092778;28;20539;-69
2021/07/20 09:39:54;;;;;;;1.40;1.13;;;23.60;95.60;;;;;;5108547;28;20453;-68
2021/07/20 09:42:36;;;;;;;3.77;2.03;;;23.90;91.60;;;;;;5100974;28;20504;-69
2021/07/20 09:45:08;;;;;;;1.93;1.83;;;24.20;93.90;;;;;;5085258;28;20460;-69
2021/07/20 09:47:50;;;;;;;1.93;1.80;;;24.50;93.10;;;;;;5092238;28;20848;-68
2021/07/20 09:50:18;;;;;;;2.40;1.90;;;24.20;89.10;;;;;;5091862;28;20520;-68
2021/07/20 09:53:19;;;;;;;3.60;2.10;;;24.10;89.60;;;;;;5092645;28;20543;-67
2021/07/20 09:55:59;;;;;;;2.70;1.70;;;24.20;91.30;;;;;;5088920;28;20520;-68
2021/07/20 09:58:32;;;;;;;2.63;1.70;;;24.40;91.30;;;;;;5101397;28;20487;-70
2021/07/20 10:01:08;;;;;;;2.80;1.97;;;24.70;92.20;;;;;;5091208;28;20464;-69
2021/07/20 10:03:49;;;;;;;2.83;1.90;;;24.90;89.80;;;;;;5082402;28;20449;-68
2021/07/20 10:06:21;;;;;;;1.90;1.83;;;25.10;91.20;;;;;;5106768;28;20495;-68
2021/07/20 10:08:57;;;;;;;4.93;1.90;;;24.80;87.90;;;;;;5092474;28;21792;-68
2021/07/20 10:11:30;;;;;;;2.03;1.63;;;24.70;90.10;;;;;;5092968;28;20439;-68
2021/07/20 10:14:19;;;;;;;3.63;1.80;;;24.90;91.40;;;;;;5100716;28;20512;-67
2021/07/20 10:16:53;;;;;;;3.03;2.00;;;25.00;91.60;;;;;;5097440;28;20647;-66
2021/07/20 10:19:32;;;;;;;1.90;1.50;;;24.90;88.50;;;;;;5100277;28;20462;-68
2021/07/20 10:22:01;;;;;;;2.03;1.77;;;24.80;91.40;;;;;;5090133;28;20903;-67
2021/07/20 10:24:32;;;;;;;2.43;1.70;;;25.00;91.10;;;;;;5092054;28;20463;-67
2021/07/20 10:27:04;;;;;;;2.80;1.70;;;25.20;89.00;;;;;;5092633;28;20468;-67
2021/07/20 10:29:46;;;;;;;2.97;1.93;;;25.30;89.60;;;;;;5099860;28;20456;-66
2021/07/20 10:32:17;;;;;;;3.83;2.07;;;25.30;88.80;;;;;;5094657;28;21335;-67
2021/07/20 10:34:54;;;;;;;3.60;2.10;;;25.20;89.00;;;;;;5095730;28;20549;-66
2021/07/20 10:37:25;;;;;;;2.43;2.03;;;25.10;88.60;;;;;;5100266;28;20848;-68
2021/07/20 10:39:59;;;;;;;1.80;1.80;;;24.90;91.00;;;;;;5096000;28;21102;-66
2021/07/20 10:42:32;;;;;;;1.63;1.40;;;24.80;88.00;;;;;;5077913;28;20457;-67
2021/07/20 10:45:05;;;;;;;2.13;1.80;;;25.00;90.40;;;;;;5089176;28;20460;-66
2021/07/20 10:47:39;;;;;;;2.17;1.90;;;25.20;89.90;;;;;;5101824;28;20517;-67
2021/07/20 10:50:13;;;;;;;2.27;2.03;;;25.50;87.50;;;;;;5090334;28;20460;-67
2021/07/20 10:53:06;;;;;;;3.43;2.03;;;25.20;87.70;;;;;;5105131;28;20486;-67
2021/07/20 10:55:48;;;;;;;3.47;2.10;;;25.30;86.40;;;;;;5085194;28;20550;-68
2021/07/20 10:58:26;;;;;;;2.67;1.80;;;25.40;89.50;;;;;;5091343;28;20495;-67
2021/07/20 11:01:02;;;;;;;2.20;1.80;;;25.60;87.60;;;;;;5091258;28;20498;-67
2021/07/20 11:03:48;;;;;;;3.40;2.20;;;26.00;85.50;;;;;;5091616;28;20494;-68
2021/07/20 11:06:21;;;;;;;2.40;1.90;;;26.10;85.10;;;;;;5108443;28;20958;-67
2021/07/20 11:08:54;;;;;;;2.43;1.77;;;25.90;85.90;;;;;;5100631;28;20559;-68
2021/07/20 11:11:26;;;;;;;3.30;2.53;;;26.00;86.00;;;;;;5088454;28;20463;-69
2021/07/20 11:13:56;;;;;;;2.80;1.90;;;26.10;84.60;;;;;;5099564;28;20455;-67
2021/07/20 11:16:25;;;;;;;2.83;2.33;;;26.20;86.90;;;;;;5083622;28;20515;-68
2021/07/20 11:18:54;;;;;;;1.70;1.50;;;26.50;84.80;;;;;;5099336;28;20797;-67
2021/07/20 11:21:24;;;;;;;10.00;2.23;;;26.70;82.80;;;;;;5100640;28;20471;-69
2021/07/20 11:23:52;;;;;;;3.47;2.13;;;26.90;83.10;;;;;;5100429;28;20456;-68
2021/07/20 11:26:20;;;;;;;2.53;2.00;;;26.90;81.10;;;;;;5098127;28;20468;-68
2021/07/20 11:28:49;;;;;;;4.77;2.50;;;26.50;80.90;;;;;;5091193;28;20632;-68
2021/07/20 11:31:22;;;;;;;2.70;2.00;;;26.50;84.60;;;;;;5091165;28;20616;-69
2021/07/20 11:33:55;;;;;;;3.57;2.00;;;26.40;83.10;;;;;;5099973;28;20518;-67
2021/07/20 11:36:26;;;;;;;2.40;2.10;;;26.50;84.20;;;;;;5099270;28;20524;-68
2021/07/20 11:38:57;;;;;;;2.83;2.20;;;26.70;82.80;;;;;;5099353;28;20455;-69
2021/07/20 11:41:36;;;;;;;3.00;2.20;;;26.50;81.00;;;;;;5092122;28;20513;-67
2021/07/20 11:44:13;;;;;;;2.50;1.77;;;26.40;83.00;;;;;;5108322;28;20451;-68
2021/07/20 11:46:48;;;;;;;3.10;2.23;;;26.90;82.70;;;;;;5102448;28;20452;-70
2021/07/20 11:49:25;;;;;;;3.67;2.10;;;27.20;82.30;;;;;;5098125;28;20487;-70
2021/07/20 11:52:01;;;;;;;1.93;1.67;;;27.60;80.70;;;;;;5096895;28;20450;-70
2021/07/20 11:54:42;;;;;;;3.47;1.87;;;27.90;81.50;;;;;;5107477;28;20455;-68
2021/07/20 11:57:44;;;;;;;3.37;2.43;;;28.00;80.60;;;;;;5099647;28;20533;-69
2021/07/20 12:00:20;;;;;;;5.67;2.13;;;27.90;80.80;;;;;;5095615;28;20456;-68
2021/07/20 12:03:16;;;;;;;3.90;2.13;;;27.50;82.10;;;;;;5104333;28;20462;-68
2021/07/20 12:06:23;;;;;;;5.63;2.80;;;27.40;82.20;;;;;;5098048;28;20486;-69
2021/07/20 12:09:00;;;;;;;2.77;1.97;;;27.50;77.90;;;;;;5097930;28;20455;-68
2021/07/20 12:11:30;;;;;;;3.33;2.33;;;27.40;77.50;;;;;;5087939;28;20459;-68
2021/07/20 12:14:00;;;;;;;4.63;2.20;;;27.20;78.60;;;;;;5107292;28;20451;-68
2021/07/20 12:16:27;;;;;;;5.27;2.60;;;27.20;77.40;;;;;;5107156;28;20526;-66
2021/07/20 12:18:55;;;;;;;2.13;1.90;;;27.00;78.40;;;;;;5092887;28;20456;-66
2021/07/20 12:21:25;;;;;;;5.10;1.90;;;27.10;79.60;;;;;;5098796;28;20531;-66
2021/07/20 12:23:57;;;;;;;4.77;3.10;;;27.50;80.90;;;;;;5097025;28;21095;-65
2021/07/20 12:26:27;;;;;;;2.87;1.70;;;27.60;79.50;;;;;;5104842;28;20543;-68
2021/07/20 12:28:55;;;;;;;4.17;2.40;;;27.70;79.50;;;;;;5102651;28;20512;-66
2021/07/20 12:31:23;;;;;;;2.80;1.80;;;27.90;77.50;;;;;;5100947;28;20481;-67
2021/07/20 12:33:51;;;;;;;2.63;1.87;;;28.10;78.50;;;;;;5104597;28;20512;-66
2021/07/20 12:36:18;;;;;;;3.47;2.17;;;28.10;74.10;;;;;;5095382;28;20507;-68
2021/07/20 12:38:46;;;;;;;3.93;2.47;;;27.50;77.90;;;;;;5089754;28;20537;-67
2021/07/20 12:41:16;;;;;;;2.27;1.87;;;27.20;77.60;;;;;;5099226;28;20456;-68
2021/07/20 12:43:46;;;;;;;2.93;2.10;;;26.60;78.20;;;;;;5106128;28;20487;-67
2021/07/20 12:46:15;;;;;;;2.80;1.90;;;26.30;81.20;;;;;;5100330;28;20517;-68
2021/07/20 12:48:51;;;;;;;2.37;1.93;;;26.20;80.60;;;;;;5096372;28;20519;-67
2021/07/20 12:51:21;;;;;;;2.10;1.63;;;26.00;80.10;;;;;;5097307;28;20471;-67
2021/07/20 12:53:50;;;;;;;3.77;2.50;;;25.90;81.80;;;;;;5090272;28;20464;-68
2021/07/20 12:56:22;;;;;;;1.93;1.70;;;26.00;81.10;;;;;;5098471;28;20452;-68
2021/07/20 12:58:50;;;;;;;3.00;2.07;;;26.40;80.60;;;;;;5094739;28;20491;-68
2021/07/20 13:01:21;;;;;;;3.63;2.43;;;26.80;78.90;;;;;;5111098;28;20539;-68
2021/07/20 13:03:52;;;;;;;4.93;1.97;;;27.20;77.80;;;;;;5103821;28;20798;-68
2021/07/20 13:06:20;;;;;;;4.43;2.00;;;27.20;77.50;;;;;;5095030;28;20801;-68
2021/07/20 13:08:50;;;;;;;5.67;3.03;;;27.70;77.60;;;;;;5094760;28;20483;-67
2021/07/20 13:11:19;;;;;;;3.33;2.40;;;28.00;77.60;;;;;;5094543;28;20520;-67
2021/07/20 13:13:48;;;;;;;5.70;2.50;;;28.20;74.00;;;;;;5094915;28;20451;-67
2021/07/20 13:16:18;;;;;;;3.67;2.47;;;28.40;74.10;;;;;;5093460;28;20504;-68
2021/07/20 13:18:49;;;;;;;3.57;2.00;;;28.50;75.60;;;;;;5093482;28;20487;-68